Time;durP1;ratioP1;P1;durP2;ratioP2;P2;SDS_P1;SDS_P2;PMS_P1;PMS_P2;Temp;Humidity;BMP_temperature;BMP_pressure;BME280_temperature;BME280_humidity;BME280_pressure;Samples;Min_cycle;Max_cycle;Signal;HPM_P1;HPM_P2
2021/03/12 01:14:29;;;;;;;14.15;6.07;;;;;;;-0.71;60.37;99637.41;5090626;23;20726;-81
2021/03/12 01:18:10;;;;;;;13.75;6.15;;;;;;;-0.77;60.40;99645.19;4883807;29;20064;-81
2021/03/12 01:21:52;;;;;;;16.83;7.25;;;;;;;-0.83;60.87;99634.44;4853212;29;20060;-82
2021/03/12 01:43:25;;;;;;;15.38;6.15;;;;;;;-1.18;62.84;99578.34;6040095;23;20144;31
2021/03/12 02:32:04;;;;;;;10.32;5.68;;;;;;;-1.43;63.60;99568.16;5994835;23;20007;31
2021/03/12 03:54:29;;;;;;;22.40;8.10;;;;;;;-1.73;66.57;99604.94;5741196;23;20272;31
2021/03/12 06:37:29;;;;;;;16.95;8.60;;;;;;;0.03;63.03;99518.84;5514829;23;20080;-85
2021/03/12 06:54:11;;;;;;;16.90;9.68;;;;;;;0.58;60.58;99563.59;5026160;23;20047;-81
2021/03/12 07:43:58;;;;;;;18.08;10.27;;;;;;;0.95;64.59;99578.06;4942480;29;20523;-78
2021/03/12 07:46:25;;;;;;;19.27;9.13;;;;;;;1.02;64.15;99578.06;4937683;28;20043;-80
2021/03/12 07:49:25;;;;;;;17.65;10.18;;;;;;;1.09;64.42;99580.72;4947266;29;20032;-81
2021/03/12 07:51:52;;;;;;;18.42;9.57;;;;;;;1.14;63.47;99598.56;4944116;29;20055;-80
2021/03/12 07:54:47;;;;;;;18.20;9.63;;;;;;;1.21;64.16;99613.38;4961271;29;20007;-82
2021/03/12 08:00:14;;;;;;;15.40;8.85;;;;;;;1.30;63.90;99623.72;4935743;28;20056;-81
2021/03/12 08:09:49;;;;;;;12.05;8.48;;;;;;;1.68;63.09;99634.47;5709344;23;20060;-80
2021/03/12 08:13:10;;;;;;;15.00;9.60;;;;;;;1.80;61.73;99633.88;4921608;29;20071;-80
2021/03/12 08:19:41;;;;;;;16.92;9.55;;;;;;;2.04;61.83;99603.44;4936267;29;20115;-83
2021/03/12 08:30:36;;;;;;;15.65;8.85;;;;;;;2.78;61.52;99598.69;5241479;23;20040;-82
2021/03/12 08:51:48;;;;;;;20.98;10.32;;;;;;;3.95;58.46;99589.50;5014685;23;20056;-78
2021/03/12 08:54:14;;;;;;;15.80;10.43;;;;;;;4.12;58.21;99586.28;4900726;29;20056;-79
2021/03/12 08:56:40;;;;;;;22.20;10.70;;;;;;;4.25;57.80;99578.19;5067428;23;20516;-80
2021/03/12 08:59:06;;;;;;;17.70;10.40;;;;;;;4.32;58.22;99570.16;4919765;29;20121;-79
2021/03/12 09:01:33;;;;;;;18.10;10.88;;;;;;;4.42;56.97;99573.13;4913525;29;20020;-79
2021/03/12 09:14:45;;;;;;;19.35;9.90;;;;;;;4.49;56.11;99557.97;4952682;29;20046;-82
2021/03/12 09:30:38;;;;;;;21.50;12.10;;;;;;;4.59;57.92;99552.13;5578176;23;20180;31
2021/03/12 09:36:42;;;;;;;15.63;9.27;;;;;;;4.75;58.12;99563.94;5398956;23;20066;-80
2021/03/12 09:39:23;;;;;;;18.83;11.48;;;;;;;4.89;59.01;99558.44;5472336;23;20056;-78
2021/03/12 09:41:56;;;;;;;20.25;10.10;;;;;;;4.98;57.22;99546.50;4917820;29;20077;-79
2021/03/12 09:44:23;;;;;;;22.65;10.38;;;;;;;5.05;57.48;99552.50;4935521;29;20079;-79
2021/03/12 09:46:54;;;;;;;21.30;11.25;;;;;;;5.13;57.95;99540.78;4920461;29;20106;-78
2021/03/12 09:49:39;;;;;;;22.27;11.10;;;;;;;5.17;57.03;99538.47;4936558;29;20038;-78
2021/03/12 09:52:10;;;;;;;19.88;11.32;;;;;;;5.12;57.79;99539.94;4929626;29;20492;-79
2021/03/12 09:54:36;;;;;;;18.80;10.45;;;;;;;5.16;56.84;99539.50;4917764;29;20040;-77
2021/03/12 09:57:04;;;;;;;20.50;10.48;;;;;;;5.18;56.42;99524.97;4926803;29;20053;-78
2021/03/12 09:59:33;;;;;;;20.53;11.00;;;;;;;5.23;57.23;99509.19;4934033;29;20032;-80
2021/03/12 10:02:07;;;;;;;16.50;9.73;;;;;;;5.29;56.90;99512.78;4929604;29;20506;-77
2021/03/12 10:04:38;;;;;;;18.23;10.40;;;;;;;5.37;56.59;99499.19;4918985;29;20036;-76
2021/03/12 10:07:12;;;;;;;15.75;9.95;;;;;;;5.50;56.67;99490.16;4920365;29;20636;-80
2021/03/12 10:09:40;;;;;;;17.75;10.50;;;;;;;5.56;56.02;99478.63;4933700;29;20032;-79
2021/03/12 10:12:22;;;;;;;20.55;11.55;;;;;;;5.65;56.08;99472.97;4929314;29;20020;-78
2021/03/12 10:15:07;;;;;;;18.63;10.25;;;;;;;5.69;55.99;99466.16;4931395;29;20039;-79
2021/03/12 10:17:36;;;;;;;18.63;10.18;;;;;;;5.79;56.35;99461.06;4925216;29;20428;-79
2021/03/12 10:20:19;;;;;;;22.15;11.93;;;;;;;5.93;56.15;99451.00;4918624;29;20035;-80
2021/03/12 10:22:58;;;;;;;18.17;11.18;;;;;;;5.99;55.22;99446.63;4916991;29;20032;-80
2021/03/12 10:25:35;;;;;;;20.02;11.73;;;;;;;6.03;55.02;99456.56;4916776;29;20047;-80
2021/03/12 10:28:05;;;;;;;19.73;10.70;;;;;;;6.08;54.90;99451.34;4917507;29;20032;-79
2021/03/12 10:30:32;;;;;;;18.95;11.05;;;;;;;6.09;55.13;99439.66;4917743;29;20035;-79
2021/03/12 10:33:00;;;;;;;21.45;11.93;;;;;;;6.15;55.42;99437.09;4917406;29;20078;-79
2021/03/12 10:35:31;;;;;;;;;;;;;;;6.21;55.75;99439.63;4918404;29;20054;-78
2021/03/12 10:37:59;;;;;;;17.25;10.30;;;;;;;6.28;55.13;99444.00;4919661;29;20302;-79
2021/03/12 10:40:27;;;;;;;20.08;10.45;;;;;;;6.25;55.15;99442.63;4917670;29;20066;-78
2021/03/12 10:42:52;;;;;;;16.25;9.63;;;;;;;6.38;55.11;99447.66;4919230;29;20055;-79
2021/03/12 10:45:20;;;;;;;20.63;10.45;;;;;;;6.49;54.96;99450.47;4919783;29;20107;-79
2021/03/12 10:48:03;;;;;;;16.17;10.13;;;;;;;6.46;53.73;99433.16;4918241;29;20653;-79
2021/03/12 10:50:33;;;;;;;19.13;10.18;;;;;;;6.45;53.59;99438.72;4922046;29;20036;-80
2021/03/12 10:53:13;;;;;;;15.98;9.63;;;;;;;6.46;54.09;99435.00;4930216;29;20032;-80
2021/03/12 10:55:45;;;;;;;17.92;10.27;;;;;;;6.47;54.29;99431.31;4927951;29;20498;-80
2021/03/12 10:58:33;;;;;;;18.23;10.45;;;;;;;6.44;55.29;99429.13;4928671;29;20028;-79
2021/03/12 11:01:06;;;;;;;17.77;10.27;;;;;;;6.47;54.86;99413.53;4929080;29;20059;-80
2021/03/12 11:03:32;;;;;;;15.75;9.23;;;;;;;6.46;54.76;99408.44;4922158;29;20036;-79
2021/03/12 11:05:57;;;;;;;17.25;10.70;;;;;;;6.46;54.54;99401.28;4923225;29;20099;-80
2021/03/12 11:08:25;;;;;;;14.55;9.90;;;;;;;6.47;54.58;99400.25;4923411;29;20063;-79
2021/03/12 11:10:51;;;;;;;17.60;9.10;;;;;;;6.46;54.04;99384.50;4927615;29;20031;-80
2021/03/12 11:13:16;;;;;;;18.77;9.60;;;;;;;6.44;54.36;99390.09;4936004;29;20032;-78
2021/03/12 11:15:42;;;;;;;17.33;10.45;;;;;;;6.49;55.50;99389.38;4925984;29;20098;-80
2021/03/12 11:18:08;;;;;;;13.63;8.35;;;;;;;6.56;54.97;99385.50;4930516;29;20043;-79
2021/03/12 11:20:33;;;;;;;16.88;10.52;;;;;;;6.59;55.14;99386.06;4919294;29;20040;-79
2021/03/12 11:23:00;;;;;;;19.17;10.77;;;;;;;6.68;54.96;99385.44;4919178;29;20111;-80
2021/03/12 11:25:25;;;;;;;18.85;9.63;;;;;;;6.75;54.30;99385.28;4927217;29;20042;-80
2021/03/12 11:27:50;;;;;;;13.73;8.02;;;;;;;6.78;53.20;99381.31;4923299;29;20474;-80
2021/03/12 11:30:18;;;;;;;17.17;8.95;;;;;;;6.79;53.69;99380.28;4927481;29;20385;-80
2021/03/12 11:32:44;;;;;;;14.80;8.98;;;;;;;6.82;53.66;99369.16;4930828;29;20031;-80
2021/03/12 11:35:10;;;;;;;16.08;8.93;;;;;;;6.87;53.50;99370.03;4937676;29;20039;-80
2021/03/12 11:37:36;;;;;;;14.95;9.35;;;;;;;6.88;53.51;99350.38;4937327;29;20082;-80
2021/03/12 11:40:03;;;;;;;16.95;9.10;;;;;;;6.92;53.05;99357.88;4926289;29;20476;-79
2021/03/12 11:42:29;;;;;;;12.45;8.63;;;;;;;6.93;53.11;99349.63;4941166;29;20036;-79
2021/03/12 11:44:55;;;;;;;17.10;9.07;;;;;;;6.93;53.73;99348.84;4941773;29;20044;-80
2021/03/12 11:47:20;;;;;;;13.38;8.82;;;;;;;6.97;53.93;99347.28;4939716;29;20031;-80
2021/03/12 11:49:47;;;;;;;11.70;7.45;;;;;;;6.93;52.57;99356.81;4941637;29;20106;-80
2021/03/12 11:52:13;;;;;;;11.68;6.38;;;;;;;6.93;51.73;99357.59;4940098;29;20573;-80
2021/03/12 11:54:38;;;;;;;11.65;6.90;;;;;;;6.89;51.68;99340.53;4954774;29;20483;-80
2021/03/12 11:57:04;;;;;;;11.95;6.75;;;;;;;6.93;53.46;99336.34;4958484;29;20031;-80
2021/03/12 11:59:30;;;;;;;11.75;7.80;;;;;;;6.98;53.73;99339.09;4958291;29;20027;-79
2021/03/12 12:01:57;;;;;;;13.68;8.45;;;;;;;7.01;54.67;99327.94;4958367;29;20046;-80
2021/03/12 12:04:23;;;;;;;15.90;9.83;;;;;;;7.12;54.59;99312.16;4958531;29;20031;-80
2021/03/12 12:06:49;;;;;;;14.80;9.75;;;;;;;7.21;54.05;99302.66;4956802;29;20271;-80
2021/03/12 12:09:14;;;;;;;14.25;8.48;;;;;;;7.29;53.10;99298.78;4955505;28;20403;-81
2021/03/12 12:11:40;;;;;;;14.70;8.93;;;;;;;7.37;52.93;99301.00;4953277;28;20034;-79
2021/03/12 12:14:05;;;;;;;12.55;8.15;;;;;;;7.46;52.77;99288.88;4954606;29;20035;-80
2021/03/12 12:16:31;;;;;;;15.38;8.77;;;;;;;7.52;53.26;99276.44;4953936;29;20491;-80
2021/03/12 12:18:57;;;;;;;12.13;7.93;;;;;;;7.61;53.25;99266.94;4953466;29;20037;-79
2021/03/12 12:21:23;;;;;;;15.30;9.02;;;;;;;7.68;53.29;99256.91;4953147;29;20039;-80
2021/03/12 12:23:49;;;;;;;13.35;8.70;;;;;;;7.76;52.71;99252.97;4954360;29;20028;-80
2021/03/12 12:26:14;;;;;;;15.63;10.15;;;;;;;7.76;53.03;99247.63;4954722;29;20058;-80
2021/03/12 12:28:40;;;;;;;16.42;10.07;;;;;;;7.82;53.40;99246.66;4955623;29;20062;-80
2021/03/12 12:31:05;;;;;;;15.43;10.10;;;;;;;7.89;52.71;99251.75;4937822;29;20032;-80
2021/03/12 12:33:31;;;;;;;11.90;8.10;;;;;;;7.96;52.79;99251.56;4936336;29;20043;-80
2021/03/12 12:35:56;;;;;;;13.57;8.43;;;;;;;8.04;52.50;99259.06;4935419;29;20024;-79
2021/03/12 12:38:22;;;;;;;13.40;9.52;;;;;;;8.08;52.95;99252.19;4934498;29;20142;-80
2021/03/12 12:40:48;;;;;;;13.50;8.63;;;;;;;8.15;53.49;99257.28;4934473;29;20038;-83
2021/03/12 12:43:14;;;;;;;15.20;8.98;;;;;;;8.21;52.89;99244.81;4934749;29;20411;-79
2021/03/12 12:45:39;;;;;;;17.05;9.43;;;;;;;8.28;52.91;99245.41;4933895;29;20399;-79
2021/03/12 12:48:05;;;;;;;13.13;9.05;;;;;;;8.29;52.37;99234.50;4935383;29;20539;-79
2021/03/12 12:50:31;;;;;;;12.07;8.88;;;;;;;8.34;52.61;99233.72;4934547;29;20047;-81
2021/03/12 12:52:56;;;;;;;14.27;8.63;;;;;;;8.38;52.13;99228.69;4933842;29;20089;-79
2021/03/12 12:55:22;;;;;;;16.00;8.57;;;;;;;8.42;52.20;99235.09;4929426;29;20091;-81
2021/03/12 12:57:48;;;;;;;13.98;8.80;;;;;;;8.48;52.82;99228.78;4925084;29;20039;-81
2021/03/12 13:00:25;;;;;;;13.10;8.63;;;;;;;8.55;52.98;99223.22;4930807;29;20035;-80
2021/03/12 13:02:51;;;;;;;13.27;8.95;;;;;;;8.56;51.67;99217.63;4914252;29;20025;-80
2021/03/12 13:05:16;;;;;;;13.70;8.30;;;;;;;8.58;52.31;99209.38;4914716;29;20032;-80
2021/03/12 13:07:42;;;;;;;18.63;10.75;;;;;;;8.59;52.53;99206.47;4924874;29;20074;-80
2021/03/12 13:10:09;;;;;;;12.80;9.13;;;;;;;8.59;52.11;99214.47;4936329;29;20030;-80
2021/03/12 13:12:34;;;;;;;14.65;8.23;;;;;;;8.62;52.51;99219.25;4906214;29;20040;-78
2021/03/12 13:15:00;;;;;;;11.88;8.00;;;;;;;8.64;52.47;99208.34;4932671;29;20090;-80
2021/03/12 13:17:26;;;;;;;15.95;9.07;;;;;;;8.65;52.08;99215.28;4926403;29;20039;-79
2021/03/12 13:19:55;;;;;;;15.15;9.02;;;;;;;8.67;52.52;99212.34;4929961;29;20529;-80
2021/03/12 13:22:48;;;;;;;13.07;8.73;;;;;;;8.69;52.72;99208.38;4916406;29;20035;-82
2021/03/12 13:25:39;;;;;;;15.40;8.63;;;;;;;8.71;53.20;99197.44;4914437;29;20059;-82
2021/03/12 13:28:13;;;;;;;15.10;8.68;;;;;;;8.75;52.97;99199.34;4913464;29;20502;-84
2021/03/12 13:30:39;;;;;;;13.98;8.80;;;;;;;8.75;53.04;99194.00;4925104;29;20028;-80
2021/03/12 13:43:08;;;;;;;14.38;9.27;;;;;;;8.62;53.54;99183.81;4962288;23;20075;-80
2021/03/12 13:45:55;;;;;;;15.20;10.30;;;;;;;8.64;52.84;99193.16;4939703;29;20031;-84
2021/03/12 13:48:21;;;;;;;17.50;10.55;;;;;;;8.65;53.54;99180.63;4935521;29;20051;-82
2021/03/12 13:50:47;;;;;;;12.60;8.77;;;;;;;8.68;53.54;99177.44;4917530;29;20028;-80
2021/03/12 13:56:49;;;;;;;12.25;8.32;;;;;;;8.69;53.84;99167.56;4919395;29;20076;-83
2021/03/12 14:02:57;;;;;;;14.45;9.18;;;;;;;8.73;53.87;99163.34;4941983;29;20595;-85
2021/03/12 14:06:18;;;;;;;11.88;8.63;;;;;;;8.76;53.68;99171.63;4945834;28;20048;-85
2021/03/12 14:13:06;;;;;;;17.77;10.13;;;;;;;8.87;54.30;99159.09;4843035;29;20057;-89
2021/03/12 14:22:27;;;;;;;16.42;9.90;;;;;;;9.03;53.83;99151.16;4784529;29;20051;-82
2021/03/12 14:28:48;;;;;;;21.85;12.48;;;;;;;9.10;53.77;99146.38;4876894;29;20576;-85
2021/03/12 14:31:45;;;;;;;18.63;11.02;;;;;;;9.06;53.52;99151.44;4879231;29;20028;-81
2021/03/12 14:34:10;;;;;;;16.85;11.50;;;;;;;9.08;53.27;99138.66;4879970;29;20486;-81
2021/03/12 14:36:37;;;;;;;16.13;10.13;;;;;;;9.10;53.83;99141.03;4882334;29;20127;-81
2021/03/12 14:46:40;;;;;;;17.38;11.63;;;;;;;9.00;54.21;99133.81;4860699;29;19926;-89
2021/03/12 14:53:12;;;;;;;19.40;12.45;;;;;;;8.95;54.38;99112.47;4863372;29;20536;-85
2021/03/12 14:55:59;;;;;;;24.30;13.63;;;;;;;8.92;54.57;99108.47;4859205;29;20033;-84
2021/03/12 15:02:54;;;;;;;21.45;13.73;;;;;;;8.96;54.78;99116.75;4859685;29;20053;-84
2021/03/12 15:05:39;;;;;;;20.08;11.65;;;;;;;8.98;54.48;99117.25;4857308;29;20041;-80
2021/03/12 15:08:31;;;;;;;19.42;12.30;;;;;;;8.97;54.86;99116.47;4859005;29;20087;-82
2021/03/12 15:11:41;;;;;;;20.08;12.05;;;;;;;8.97;54.64;99111.13;4860143;29;20037;-89
2021/03/12 15:17:43;;;;;;;18.88;12.68;;;;;;;8.93;55.07;99106.59;4886837;29;20100;-85
2021/03/12 15:27:44;;;;;;;21.40;12.10;;;;;;;8.84;55.81;99105.50;4910562;29;20035;-86
2021/03/12 15:31:06;;;;;;;19.05;11.07;;;;;;;8.72;56.19;99103.06;4869100;29;20067;-93
2021/03/12 15:37:32;;;;;;;24.73;11.27;;;;;;;8.61;56.41;99104.91;4891334;29;20198;-87
2021/03/12 15:50:24;;;;;;;23.02;13.13;;;;;;;8.25;57.27;99084.22;4864194;29;20168;-87
2021/03/12 15:53:52;;;;;;;21.75;13.98;;;;;;;8.26;57.84;99099.09;4840904;29;20115;-83
2021/03/12 15:56:41;;;;;;;20.13;12.57;;;;;;;8.16;57.71;99093.75;4765352;30;20055;-84
2021/03/12 15:59:07;;;;;;;;;;;;;;;8.15;57.58;99102.78;4729811;30;20048;-82
2021/03/12 16:01:37;;;;;;;19.48;11.82;;;;;;;8.05;58.13;99094.75;4806260;29;19913;-88
2021/03/12 16:04:30;;;;;;;;;;;;;;;8.06;58.05;99110.47;4795576;29;20019;-84
2021/03/12 16:07:09;;;;;;;24.20;12.75;;;;;;;7.98;57.94;99101.13;4805628;29;19926;-85
2021/03/12 16:09:55;;;;;;;28.67;15.75;;;;;;;7.95;58.16;99096.28;4810442;29;20117;-90
2021/03/12 16:12:34;;;;;;;32.40;18.38;;;;;;;7.93;58.47;99102.94;4809865;29;20047;-86
2021/03/12 16:15:26;;;;;;;24.90;15.50;;;;;;;7.91;58.04;99108.53;4809647;29;20043;-86
2021/03/12 16:17:52;;;;;;;33.40;19.50;;;;;;;7.88;58.11;99118.88;4813904;29;20042;-88
2021/03/12 16:20:21;;;;;;;40.17;22.15;;;;;;;7.81;58.82;99122.56;4832252;29;20030;-91
2021/03/12 16:23:10;;;;;;;38.40;22.45;;;;;;;7.87;58.49;99142.03;4840280;29;20038;-84
2021/03/12 16:29:24;;;;;;;39.95;21.83;;;;;;;7.82;58.63;99148.13;4846632;29;20041;-88
2021/03/12 16:32:56;;;;;;;22.33;14.18;;;;;;;7.82;58.56;99155.31;4857176;29;20087;-84
2021/03/12 16:35:57;;;;;;;30.88;16.92;;;;;;;7.73;58.99;99149.66;4889321;29;20722;-80
2021/03/12 16:38:43;;;;;;;36.05;18.80;;;;;;;7.71;58.75;99153.63;4905526;29;20048;-80
2021/03/12 16:41:18;;;;;;;27.27;17.05;;;;;;;7.61;59.14;99152.47;4873377;29;20022;-80
2021/03/12 17:19:34;;;;;;;82.18;42.45;;;;;;;6.94;62.07;99164.34;5941313;23;20038;-87
2021/03/12 18:21:54;;;;;;;38.80;20.10;;;;;;;6.22;65.02;99153.59;5001962;23;20066;-80
2021/03/12 19:22:27;;;;;;;43.67;23.50;;;;;;;5.84;67.15;99171.06;4957521;28;20063;-81
